sensor_id;sensor_type;location;lat;lon;timestamp;pressure;altitude;pressure_sealevel;temperature;humidity
67931;BME280;54726;52.000;5.954;2022-08-24T00:00:40;101338.34;;;19.73;76.68
67931;BME280;54726;52.000;5.954;2022-08-24T00:01:40;101329.75;;;19.68;76.56
67931;BME280;54726;52.000;5.954;2022-08-24T00:02:40;101322.66;;;19.67;76.54
67931;BME280;54726;52.000;5.954;2022-08-24T00:03:43;101336.44;;;19.75;76.66
67931;BME280;54726;52.000;5.954;2022-08-24T00:04:44;101330.19;;;19.75;76.53
67931;BME280;54726;52.000;5.954;2022-08-24T00:05:45;101332.22;;;19.71;76.78
67931;BME280;54726;52.000;5.954;2022-08-24T00:06:45;101336.97;;;19.67;76.63
67931;BME280;54726;52.000;5.954;2022-08-24T00:07:47;101333.41;;;19.67;77.04
67931;BME280;54726;52.000;5.954;2022-08-24T00:08:49;101333.41;;;19.67;77.17
67931;BME280;54726;52.000;5.954;2022-08-24T00:09:49;101331.88;;;19.63;76.99
67931;BME280;54726;52.000;5.954;2022-08-24T00:10:50;101329.31;;;19.61;77.02
67931;BME280;54726;52.000;5.954;2022-08-24T00:11:51;101335.75;;;19.59;77.13
67931;BME280;54726;52.000;5.954;2022-08-24T00:12:51;101335.97;;;19.56;77.47
67931;BME280;54726;52.000;5.954;2022-08-24T00:13:52;101338.75;;;19.54;77.60
67931;BME280;54726;52.000;5.954;2022-08-24T00:14:53;101329.28;;;19.49;77.56
67931;BME280;54726;52.000;5.954;2022-08-24T00:15:54;101335.66;;;19.48;77.71
67931;BME280;54726;52.000;5.954;2022-08-24T00:16:55;101335.75;;;19.46;77.76
67931;BME280;54726;52.000;5.954;2022-08-24T00:17:56;101326.28;;;19.40;77.76
67931;BME280;54726;52.000;5.954;2022-08-24T00:18:58;101337.72;;;19.44;77.72
67931;BME280;54726;52.000;5.954;2022-08-24T00:19:58;101335.13;;;19.42;77.93
67931;BME280;54726;52.000;5.954;2022-08-24T00:20:59;101327.56;;;19.35;77.89
67931;BME280;54726;52.000;5.954;2022-08-24T00:21:59;101338.25;;;19.36;78.06
67931;BME280;54726;52.000;5.954;2022-08-24T00:23:00;101338.47;;;19.33;78.12
67931;BME280;54726;52.000;5.954;2022-08-24T00:24:00;101339.41;;;19.32;78.33
67931;BME280;54726;52.000;5.954;2022-08-24T00:25:01;101337.69;;;19.31;78.31
67931;BME280;54726;52.000;5.954;2022-08-24T00:26:03;101337.69;;;19.31;78.31
67931;BME280;54726;52.000;5.954;2022-08-24T00:27:05;101341.34;;;19.30;78.12
67931;BME280;54726;52.000;5.954;2022-08-24T00:28:05;101339.75;;;19.28;78.21
67931;BME280;54726;52.000;5.954;2022-08-24T00:29:06;101340.59;;;19.28;78.34
67931;BME280;54726;52.000;5.954;2022-08-24T00:30:11;101338.34;;;19.22;78.53
67931;BME280;54726;52.000;5.954;2022-08-24T00:31:12;101334.66;;;19.23;78.66
67931;BME280;54726;52.000;5.954;2022-08-24T00:32:12;101339.41;;;19.19;78.59
67931;BME280;54726;52.000;5.954;2022-08-24T00:33:13;101344.16;;;19.16;78.76
67931;BME280;54726;52.000;5.954;2022-08-24T00:34:15;101331.00;;;19.11;79.01
67931;BME280;54726;52.000;5.954;2022-08-24T00:35:17;101341.13;;;19.08;78.91
67931;BME280;54726;52.000;5.954;2022-08-24T00:36:17;101339.59;;;19.04;79.21
67931;BME280;54726;52.000;5.954;2022-08-24T00:37:17;101336.13;;;19.01;79.22
67931;BME280;54726;52.000;5.954;2022-08-24T00:38:18;101339.81;;;19.00;79.51
67931;BME280;54726;52.000;5.954;2022-08-24T00:39:19;101340.78;;;18.99;79.19
67931;BME280;54726;52.000;5.954;2022-08-24T00:40:23;101336.56;;;18.95;79.24
67931;BME280;54726;52.000;5.954;2022-08-24T00:41:24;101346.25;;;18.98;79.31
67931;BME280;54726;52.000;5.954;2022-08-24T00:42:25;101333.31;;;18.90;79.49
67931;BME280;54726;52.000;5.954;2022-08-24T00:43:25;101349.28;;;18.93;79.64
67931;BME280;54726;52.000;5.954;2022-08-24T00:44:25;101338.69;;;18.90;79.66
67931;BME280;54726;52.000;5.954;2022-08-24T00:45:26;101344.97;;;18.91;79.65
67931;BME280;54726;52.000;5.954;2022-08-24T00:46:39;101345.81;;;18.91;79.55
67931;BME280;54726;52.000;5.954;2022-08-24T00:47:43;101354.81;;;18.90;79.61
67931;BME280;54726;52.000;5.954;2022-08-24T00:48:46;101349.56;;;18.89;79.58
67931;BME280;54726;52.000;5.954;2022-08-24T00:49:53;101347.75;;;18.89;79.51
67931;BME280;54726;52.000;5.954;2022-08-24T00:50:57;101347.75;;;18.89;79.55
67931;BME280;54726;52.000;5.954;2022-08-24T00:52:02;101354.09;;;18.88;79.42
67931;BME280;54726;52.000;5.954;2022-08-24T00:53:09;101352.47;;;18.86;79.68
67931;BME280;54726;52.000;5.954;2022-08-24T00:54:13;101350.84;;;18.83;79.54
67931;BME280;54726;52.000;5.954;2022-08-24T00:55:17;101345.56;;;18.82;79.51
67931;BME280;54726;52.000;5.954;2022-08-24T00:56:21;101346.63;;;18.79;79.84
67931;BME280;54726;52.000;5.954;2022-08-24T00:57:26;101347.59;;;18.78;79.83
67931;BME280;54726;52.000;5.954;2022-08-24T00:58:30;101353.09;;;18.76;79.98
67931;BME280;54726;52.000;5.954;2022-08-24T00:59:36;101348.66;;;18.75;80.17
67931;BME280;54726;52.000;5.954;2022-08-24T01:00:41;101346.09;;;18.74;79.78
67931;BME280;54726;52.000;5.954;2022-08-24T01:01:42;101356.84;;;18.74;79.99
67931;BME280;54726;52.000;5.954;2022-08-24T01:02:45;101353.34;;;18.72;79.87
67931;BME280;54726;52.000;5.954;2022-08-24T01:03:47;101355.19;;;18.71;80.22
67931;BME280;54726;52.000;5.954;2022-08-24T01:04:53;101352.59;;;18.70;80.04
67931;BME280;54726;52.000;5.954;2022-08-24T01:05:54;101362.47;;;18.69;80.09
67931;BME280;54726;52.000;5.954;2022-08-24T01:06:57;101361.63;;;18.69;80.10
67931;BME280;54726;52.000;5.954;2022-08-24T01:07:58;101353.78;;;18.66;80.33
67931;BME280;54726;52.000;5.954;2022-08-24T01:08:59;101358.28;;;18.65;80.16
67931;BME280;54726;52.000;5.954;2022-08-24T01:10:03;101356.66;;;18.63;80.67
67931;BME280;54726;52.000;5.954;2022-08-24T01:11:09;101357.53;;;18.63;80.58
67931;BME280;54726;52.000;5.954;2022-08-24T01:12:10;101344.50;;;18.57;80.56
67931;BME280;54726;52.000;5.954;2022-08-24T01:13:12;101353.09;;;18.62;80.59
67931;BME280;54726;52.000;5.954;2022-08-24T01:14:14;101353.09;;;18.62;80.30
67931;BME280;54726;52.000;5.954;2022-08-24T01:15:15;101354.94;;;18.62;80.38
67931;BME280;54726;52.000;5.954;2022-08-24T01:16:17;101358.59;;;18.61;80.68
67931;BME280;54726;52.000;5.954;2022-08-24T01:17:18;101350.72;;;18.58;80.63
67931;BME280;54726;52.000;5.954;2022-08-24T01:18:21;101359.72;;;18.56;80.73
67931;BME280;54726;52.000;5.954;2022-08-24T01:19:30;101353.50;;;18.56;80.73
67931;BME280;54726;52.000;5.954;2022-08-24T01:20:33;101349.97;;;18.55;80.44
67931;BME280;54726;52.000;5.954;2022-08-24T01:21:39;101342.97;;;18.53;80.58
67931;BME280;54726;52.000;5.954;2022-08-24T01:22:50;101351.22;;;18.50;80.73
67931;BME280;54726;52.000;5.954;2022-08-24T01:23:55;101351.53;;;18.45;80.90
67931;BME280;54726;52.000;5.954;2022-08-24T01:24:57;101349.81;;;18.44;80.84
67931;BME280;54726;52.000;5.954;2022-08-24T01:25:59;101348.19;;;18.42;80.98
67931;BME280;54726;52.000;5.954;2022-08-24T01:27:00;101342.16;;;18.38;81.15
67931;BME280;54726;52.000;5.954;2022-08-24T01:28:06;101350.41;;;18.35;81.33
67931;BME280;54726;52.000;5.954;2022-08-24T01:29:10;101350.63;;;18.32;81.46
67931;BME280;54726;52.000;5.954;2022-08-24T01:30:13;101346.19;;;18.31;81.68
67931;BME280;54726;52.000;5.954;2022-08-24T01:31:14;101351.56;;;18.31;81.58
67931;BME280;54726;52.000;5.954;2022-08-24T01:32:15;101347.16;;;18.30;82.02
67931;BME280;54726;52.000;5.954;2022-08-24T01:33:23;101342.78;;;18.29;81.95
67931;BME280;54726;52.000;5.954;2022-08-24T01:34:24;101341.03;;;18.28;81.89
67931;BME280;54726;52.000;5.954;2022-08-24T01:35:25;101350.06;;;18.27;81.83
67931;BME280;54726;52.000;5.954;2022-08-24T01:36:32;101351.88;;;18.26;82.05
67931;BME280;54726;52.000;5.954;2022-08-24T01:37:34;101336.91;;;18.22;82.09
67931;BME280;54726;52.000;5.954;2022-08-24T01:38:35;101348.22;;;18.27;81.90
67931;BME280;54726;52.000;5.954;2022-08-24T01:39:39;101350.06;;;18.27;82.12
67931;BME280;54726;52.000;5.954;2022-08-24T01:40:43;101346.41;;;18.28;82.00
67931;BME280;54726;52.000;5.954;2022-08-24T01:41:45;101345.63;;;18.26;81.86
67931;BME280;54726;52.000;5.954;2022-08-24T01:42:47;101337.88;;;18.21;82.24
67931;BME280;54726;52.000;5.954;2022-08-24T01:43:47;101349.28;;;18.25;82.00
67931;BME280;54726;52.000;5.954;2022-08-24T01:44:48;101343.47;;;18.18;82.01
67931;BME280;54726;52.000;5.954;2022-08-24T01:45:49;101349.47;;;18.22;82.16
67931;BME280;54726;52.000;5.954;2022-08-24T01:46:51;101344.31;;;18.19;82.35
67931;BME280;54726;52.000;5.954;2022-08-24T01:47:52;101350.66;;;18.18;82.47
67931;BME280;54726;52.000;5.954;2022-08-24T01:48:52;101346.44;;;18.14;82.52
67931;BME280;54726;52.000;5.954;2022-08-24T01:49:53;101341.63;;;18.19;82.41
67931;BME280;54726;52.000;5.954;2022-08-24T01:50:54;101348.84;;;18.18;82.23
67931;BME280;54726;52.000;5.954;2022-08-24T01:51:55;101345.28;;;18.18;82.51
67931;BME280;54726;52.000;5.954;2022-08-24T01:52:57;101349.78;;;18.17;82.37
67931;BME280;54726;52.000;5.954;2022-08-24T01:54:00;101349.13;;;18.14;82.63
67931;BME280;54726;52.000;5.954;2022-08-24T01:55:04;101339.63;;;18.08;82.89
67931;BME280;54726;52.000;5.954;2022-08-24T01:56:05;101347.59;;;18.09;82.85
67931;BME280;54726;52.000;5.954;2022-08-24T01:57:06;101346.63;;;18.10;82.93
67931;BME280;54726;52.000;5.954;2022-08-24T01:58:06;101352.78;;;18.13;82.91
67931;BME280;54726;52.000;5.954;2022-08-24T01:59:07;101342.13;;;18.11;82.90
67931;BME280;54726;52.000;5.954;2022-08-24T02:00:12;101345.66;;;18.11;82.98
67931;BME280;54726;52.000;5.954;2022-08-24T02:01:14;101342.91;;;18.13;82.71
67931;BME280;54726;52.000;5.954;2022-08-24T02:02:17;101343.75;;;18.14;82.60
67931;BME280;54726;52.000;5.954;2022-08-24T02:03:18;101344.72;;;18.13;82.70
67931;BME280;54726;52.000;5.954;2022-08-24T02:04:19;101343.94;;;18.10;82.91
67931;BME280;54726;52.000;5.954;2022-08-24T02:05:19;101339.84;;;18.05;82.68
67931;BME280;54726;52.000;5.954;2022-08-24T02:06:20;101342.44;;;18.06;82.69
67931;BME280;54726;52.000;5.954;2022-08-24T02:07:20;101348.84;;;18.04;82.97
67931;BME280;54726;52.000;5.954;2022-08-24T02:08:20;101348.16;;;18.00;82.96
67931;BME280;54726;52.000;5.954;2022-08-24T02:09:21;101357.19;;;17.99;83.24
67931;BME280;54726;52.000;5.954;2022-08-24T02:10:23;101355.66;;;17.95;83.13
67931;BME280;54726;52.000;5.954;2022-08-24T02:11:24;101350.41;;;17.94;83.26
67931;BME280;54726;52.000;5.954;2022-08-24T02:12:26;101355.84;;;17.92;83.60
67931;BME280;54726;52.000;5.954;2022-08-24T02:13:26;101356.91;;;17.89;83.56
67931;BME280;54726;52.000;5.954;2022-08-24T02:14:27;101356.03;;;17.89;83.58
67931;BME280;54726;52.000;5.954;2022-08-24T02:15:30;101350.69;;;17.89;83.61
67931;BME280;54726;52.000;5.954;2022-08-24T02:16:31;101350.69;;;17.89;83.42
67931;BME280;54726;52.000;5.954;2022-08-24T02:17:31;101348.97;;;17.88;83.40
67931;BME280;54726;52.000;5.954;2022-08-24T02:18:32;101352.50;;;17.88;83.46
67931;BME280;54726;52.000;5.954;2022-08-24T02:19:33;101349.81;;;17.88;83.31
67931;BME280;54726;52.000;5.954;2022-08-24T02:20:34;101353.47;;;17.87;83.42
67931;BME280;54726;52.000;5.954;2022-08-24T02:21:35;101347.34;;;17.85;83.73
67931;BME280;54726;52.000;5.954;2022-08-24T02:22:36;101350.88;;;17.86;83.79
67931;BME280;54726;52.000;5.954;2022-08-24T02:23:37;101351.72;;;17.86;83.66
67931;BME280;54726;52.000;5.954;2022-08-24T02:24:38;101346.75;;;17.80;83.83
67931;BME280;54726;52.000;5.954;2022-08-24T02:25:40;101353.56;;;17.86;83.94
67931;BME280;54726;52.000;5.954;2022-08-24T02:26:40;101357.22;;;17.85;83.75
67931;BME280;54726;52.000;5.954;2022-08-24T02:27:41;101354.72;;;17.82;83.74
67931;BME280;54726;52.000;5.954;2022-08-24T02:28:42;101362.97;;;17.79;84.12
67931;BME280;54726;52.000;5.954;2022-08-24T02:29:43;101359.41;;;17.78;84.12
67931;BME280;54726;52.000;5.954;2022-08-24T02:30:44;101349.13;;;17.71;84.00
67931;BME280;54726;52.000;5.954;2022-08-24T02:31:44;101361.38;;;17.75;84.24
67931;BME280;54726;52.000;5.954;2022-08-24T02:32:44;101367.72;;;17.74;84.41
67931;BME280;54726;52.000;5.954;2022-08-24T02:33:45;101361.50;;;17.73;84.21
67931;BME280;54726;52.000;5.954;2022-08-24T02:34:45;101375.00;;;17.72;84.27
67931;BME280;54726;52.000;5.954;2022-08-24T02:35:46;101374.16;;;17.71;84.51
67931;BME280;54726;52.000;5.954;2022-08-24T02:36:47;101337.06;;;17.49;84.24
67931;BME280;54726;52.000;5.954;2022-08-24T02:37:48;101377.78;;;17.70;84.68
67931;BME280;54726;52.000;5.954;2022-08-24T02:38:48;101362.81;;;17.66;84.33
67931;BME280;54726;52.000;5.954;2022-08-24T02:39:49;101364.66;;;17.65;84.46
67931;BME280;54726;52.000;5.954;2022-08-24T02:40:51;101375.19;;;17.68;84.72
67931;BME280;54726;52.000;5.954;2022-08-24T02:41:51;101370.88;;;17.66;84.46
67931;BME280;54726;52.000;5.954;2022-08-24T02:42:52;101374.34;;;17.68;84.56
67931;BME280;54726;52.000;5.954;2022-08-24T02:43:54;101377.88;;;17.68;84.66
67931;BME280;54726;52.000;5.954;2022-08-24T02:44:54;101379.78;;;17.66;84.56
67931;BME280;54726;52.000;5.954;2022-08-24T02:45:55;101368.47;;;17.61;84.88
67931;BME280;54726;52.000;5.954;2022-08-24T02:46:55;101366.66;;;17.62;85.04
67931;BME280;54726;52.000;5.954;2022-08-24T02:47:56;101364.19;;;17.59;84.88
67931;BME280;54726;52.000;5.954;2022-08-24T02:48:57;101371.00;;;17.64;84.90
67931;BME280;54726;52.000;5.954;2022-08-24T02:49:59;101370.88;;;17.66;84.75
67931;BME280;54726;52.000;5.954;2022-08-24T02:51:00;101373.66;;;17.64;84.82
67931;BME280;54726;52.000;5.954;2022-08-24T02:52:01;101377.28;;;17.63;84.98
67931;BME280;54726;52.000;5.954;2022-08-24T02:53:01;101378.25;;;17.62;85.03
67931;BME280;54726;52.000;5.954;2022-08-24T02:54:03;101372.91;;;17.62;84.91
67931;BME280;54726;52.000;5.954;2022-08-24T02:55:05;101376.50;;;17.61;84.94
67931;BME280;54726;52.000;5.954;2022-08-24T02:56:07;101373.84;;;17.61;85.15
67931;BME280;54726;52.000;5.954;2022-08-24T02:57:07;101378.44;;;17.59;85.13
67931;BME280;54726;52.000;5.954;2022-08-24T02:58:09;101375.00;;;17.57;85.07
67931;BME280;54726;52.000;5.954;2022-08-24T02:59:10;101380.56;;;17.54;85.29
67931;BME280;54726;52.000;5.954;2022-08-24T03:00:14;101370.00;;;17.51;85.33
67931;BME280;54726;52.000;5.954;2022-08-24T03:01:16;101375.56;;;17.48;85.54
67931;BME280;54726;52.000;5.954;2022-08-24T03:02:17;101374.78;;;17.46;85.45
67931;BME280;54726;52.000;5.954;2022-08-24T03:03:17;101366.16;;;17.41;85.50
67931;BME280;54726;52.000;5.954;2022-08-24T03:04:18;101368.66;;;17.44;85.53
67931;BME280;54726;52.000;5.954;2022-08-24T03:05:19;101365.19;;;17.42;85.47
67931;BME280;54726;52.000;5.954;2022-08-24T03:06:19;101371.31;;;17.44;85.56
67931;BME280;54726;52.000;5.954;2022-08-24T03:07:20;101361.75;;;17.40;85.45
67931;BME280;54726;52.000;5.954;2022-08-24T03:08:20;101370.47;;;17.43;85.25
67931;BME280;54726;52.000;5.954;2022-08-24T03:09:21;101372.31;;;17.43;85.61
67931;BME280;54726;52.000;5.954;2022-08-24T03:10:21;101370.56;;;17.42;85.33
67931;BME280;54726;52.000;5.954;2022-08-24T03:11:23;101371.53;;;17.41;85.45
67931;BME280;54726;52.000;5.954;2022-08-24T03:12:24;101371.72;;;17.38;85.46
67931;BME280;54726;52.000;5.954;2022-08-24T03:13:25;101366.34;;;17.38;85.53
67931;BME280;54726;52.000;5.954;2022-08-24T03:14:26;101365.69;;;17.34;85.59
67931;BME280;54726;52.000;5.954;2022-08-24T03:15:26;101367.59;;;17.32;85.67
67931;BME280;54726;52.000;5.954;2022-08-24T03:16:30;101362.59;;;17.26;85.59
67931;BME280;54726;52.000;5.954;2022-08-24T03:17:30;101369.59;;;17.29;85.78
67931;BME280;54726;52.000;5.954;2022-08-24T03:18:32;101369.59;;;17.29;85.87
67931;BME280;54726;52.000;5.954;2022-08-24T03:19:33;101369.59;;;17.29;85.80
67931;BME280;54726;52.000;5.954;2022-08-24T03:20:33;101369.69;;;17.27;85.96
67931;BME280;54726;52.000;5.954;2022-08-24T03:21:34;101361.56;;;17.29;85.65
67931;BME280;54726;52.000;5.954;2022-08-24T03:22:34;101345.84;;;17.22;85.57
67931;BME280;54726;52.000;5.954;2022-08-24T03:23:35;101361.56;;;17.29;85.85
67931;BME280;54726;52.000;5.954;2022-08-24T03:24:35;101360.69;;;17.28;85.73
67931;BME280;54726;52.000;5.954;2022-08-24T03:25:35;101361.75;;;17.26;85.76
67931;BME280;54726;52.000;5.954;2022-08-24T03:26:37;101358.28;;;17.23;86.00
67931;BME280;54726;52.000;5.954;2022-08-24T03:27:38;101351.66;;;17.15;86.10
67931;BME280;54726;52.000;5.954;2022-08-24T03:28:39;101367.44;;;17.19;86.11
67931;BME280;54726;52.000;5.954;2022-08-24T03:29:40;101363.06;;;17.18;86.27
67931;BME280;54726;52.000;5.954;2022-08-24T03:30:40;101364.03;;;17.17;86.19
67931;BME280;54726;52.000;5.954;2022-08-24T03:31:41;101358.84;;;17.14;86.31
67931;BME280;54726;52.000;5.954;2022-08-24T03:32:41;101362.28;;;17.16;86.28
67931;BME280;54726;52.000;5.954;2022-08-24T03:33:42;101350.03;;;17.12;86.06
67931;BME280;54726;52.000;5.954;2022-08-24T03:34:42;101355.19;;;17.15;86.10
67931;BME280;54726;52.000;5.954;2022-08-24T03:35:43;101356.91;;;17.16;86.01
67931;BME280;54726;52.000;5.954;2022-08-24T03:36:44;101357.50;;;17.21;85.95
67931;BME280;54726;52.000;5.954;2022-08-24T03:37:44;101359.41;;;17.19;86.14
67931;BME280;54726;52.000;5.954;2022-08-24T03:38:44;101360.19;;;17.21;85.89
67931;BME280;54726;52.000;5.954;2022-08-24T03:39:45;101358.47;;;17.20;86.00
67931;BME280;54726;52.000;5.954;2022-08-24T03:40:46;101358.66;;;17.17;86.10
67931;BME280;54726;52.000;5.954;2022-08-24T03:41:47;101356.16;;;17.14;86.25
67931;BME280;54726;52.000;5.954;2022-08-24T03:42:48;101350.88;;;17.13;86.20
67931;BME280;54726;52.000;5.954;2022-08-24T03:43:49;101360.63;;;17.14;86.25
67931;BME280;54726;52.000;5.954;2022-08-24T03:44:49;101344.94;;;17.08;86.30
67931;BME280;54726;52.000;5.954;2022-08-24T03:45:50;101356.34;;;17.11;86.39
67931;BME280;54726;52.000;5.954;2022-08-24T03:46:51;101356.34;;;17.11;86.41
67931;BME280;54726;52.000;5.954;2022-08-24T03:47:51;101357.28;;;17.10;86.37
67931;BME280;54726;52.000;5.954;2022-08-24T03:48:52;101347.72;;;17.06;86.55
67931;BME280;54726;52.000;5.954;2022-08-24T03:49:53;101363.69;;;17.08;86.56
67931;BME280;54726;52.000;5.954;2022-08-24T03:50:53;101330.03;;;16.88;86.60
67931;BME280;54726;52.000;5.954;2022-08-24T03:51:54;101359.38;;;17.05;86.61
67931;BME280;54726;52.000;5.954;2022-08-24T03:52:54;101363.78;;;17.06;86.69
67931;BME280;54726;52.000;5.954;2022-08-24T03:53:55;101366.56;;;17.05;86.68
67931;BME280;54726;52.000;5.954;2022-08-24T03:54:56;101362.25;;;17.02;86.53
67931;BME280;54726;52.000;5.954;2022-08-24T03:55:57;101339.63;;;16.92;86.58
67931;BME280;54726;52.000;5.954;2022-08-24T03:56:58;101354.19;;;17.02;86.57
67931;BME280;54726;52.000;5.954;2022-08-24T03:57:59;101363.03;;;17.04;86.74
67931;BME280;54726;52.000;5.954;2022-08-24T03:58:59;101368.38;;;17.04;86.74
67931;BME280;54726;52.000;5.954;2022-08-24T04:00:00;101361.38;;;17.02;86.76
67931;BME280;54726;52.000;5.954;2022-08-24T04:01:01;101372.03;;;17.03;86.80
67931;BME280;54726;52.000;5.954;2022-08-24T04:02:01;101369.34;;;17.03;86.56
67931;BME280;54726;52.000;5.954;2022-08-24T04:03:02;101372.03;;;17.03;86.80
67931;BME280;54726;52.000;5.954;2022-08-24T04:04:03;101368.75;;;16.98;87.01
67931;BME280;54726;52.000;5.954;2022-08-24T04:05:04;101374.00;;;16.99;86.99
67931;BME280;54726;52.000;5.954;2022-08-24T04:06:06;101379.34;;;16.99;87.08
67931;BME280;54726;52.000;5.954;2022-08-24T04:07:07;101373.16;;;16.99;86.63
67931;BME280;54726;52.000;5.954;2022-08-24T04:08:07;101379.47;;;16.98;86.90
67931;BME280;54726;52.000;5.954;2022-08-24T04:09:08;101370.84;;;16.93;87.03
67931;BME280;54726;52.000;5.954;2022-08-24T04:10:09;101375.03;;;16.97;87.02
67931;BME280;54726;52.000;5.954;2022-08-24T04:11:10;101362.19;;;16.88;86.98
67931;BME280;54726;52.000;5.954;2022-08-24T04:12:13;101374.28;;;16.95;87.08
67931;BME280;54726;52.000;5.954;2022-08-24T04:13:13;101365.06;;;16.85;87.03
67931;BME280;54726;52.000;5.954;2022-08-24T04:14:15;101372.72;;;16.91;86.98
67931;BME280;54726;52.000;5.954;2022-08-24T04:15:15;101373.78;;;16.88;87.15
67931;BME280;54726;52.000;5.954;2022-08-24T04:16:18;101378.28;;;16.88;87.27
67931;BME280;54726;52.000;5.954;2022-08-24T04:17:18;101373.03;;;16.86;87.34
67931;BME280;54726;52.000;5.954;2022-08-24T04:18:19;101376.56;;;16.87;87.31
67931;BME280;54726;52.000;5.954;2022-08-24T04:19:19;101369.38;;;16.87;87.34
67931;BME280;54726;52.000;5.954;2022-08-24T04:20:20;101347.69;;;16.76;87.41
67931;BME280;54726;52.000;5.954;2022-08-24T04:21:22;101370.22;;;16.88;87.31
67931;BME280;54726;52.000;5.954;2022-08-24T04:22:23;101354.78;;;16.77;87.26
67931;BME280;54726;52.000;5.954;2022-08-24T04:23:23;101375.53;;;16.89;87.23
67931;BME280;54726;52.000;5.954;2022-08-24T04:24:25;101371.00;;;16.90;87.18
67931;BME280;54726;52.000;5.954;2022-08-24T04:25:26;101371.00;;;16.90;87.36
67931;BME280;54726;52.000;5.954;2022-08-24T04:26:27;101364.97;;;16.86;87.32
67931;BME280;54726;52.000;5.954;2022-08-24T04:27:29;101365.84;;;16.87;87.34
67931;BME280;54726;52.000;5.954;2022-08-24T04:28:30;101373.88;;;16.87;87.37
67931;BME280;54726;52.000;5.954;2022-08-24T04:29:31;101365.06;;;16.85;87.45
67931;BME280;54726;52.000;5.954;2022-08-24T04:30:31;101367.06;;;16.81;87.57
67931;BME280;54726;52.000;5.954;2022-08-24T04:31:33;101376.75;;;16.84;87.72
67931;BME280;54726;52.000;5.954;2022-08-24T04:32:34;101369.63;;;16.83;87.81
67931;BME280;54726;52.000;5.954;2022-08-24T04:33:35;101374.06;;;16.84;87.89
67931;BME280;54726;52.000;5.954;2022-08-24T04:34:36;101362.75;;;16.78;87.80
67931;BME280;54726;52.000;5.954;2022-08-24T04:35:38;101376.75;;;16.84;87.87
67931;BME280;54726;52.000;5.954;2022-08-24T04:36:39;101371.47;;;16.82;87.85
67931;BME280;54726;52.000;5.954;2022-08-24T04:37:39;101375.00;;;16.83;87.95
67931;BME280;54726;52.000;5.954;2022-08-24T04:38:40;101375.00;;;16.83;87.86
67931;BME280;54726;52.000;5.954;2022-08-24T04:39:40;101381.22;;;16.83;87.84
67931;BME280;54726;52.000;5.954;2022-08-24T04:40:42;101375.00;;;16.83;87.83
67931;BME280;54726;52.000;5.954;2022-08-24T04:41:43;101372.31;;;16.83;87.92
67931;BME280;54726;52.000;5.954;2022-08-24T04:42:44;101375.00;;;16.83;87.85
67931;BME280;54726;52.000;5.954;2022-08-24T04:43:46;101377.66;;;16.83;87.65
67931;BME280;54726;52.000;5.954;2022-08-24T04:44:47;101379.50;;;16.82;88.00
67931;BME280;54726;52.000;5.954;2022-08-24T04:45:47;101376.13;;;16.78;88.00
67931;BME280;54726;52.000;5.954;2022-08-24T04:46:48;101379.50;;;16.82;88.07
67931;BME280;54726;52.000;5.954;2022-08-24T04:47:48;101382.16;;;16.82;87.99
67931;BME280;54726;52.000;5.954;2022-08-24T04:48:48;101392.88;;;16.82;87.89
67931;BME280;54726;52.000;5.954;2022-08-24T04:49:49;101378.97;;;16.75;88.20
67931;BME280;54726;52.000;5.954;2022-08-24T04:50:49;101386.66;;;16.82;88.01
67931;BME280;54726;52.000;5.954;2022-08-24T04:51:50;101387.63;;;16.81;87.97
67931;BME280;54726;52.000;5.954;2022-08-24T04:52:50;101381.66;;;16.75;87.92
67931;BME280;54726;52.000;5.954;2022-08-24T04:53:51;101396.53;;;16.81;87.81
67931;BME280;54726;52.000;5.954;2022-08-24T04:54:52;101388.56;;;16.80;87.78
67931;BME280;54726;52.000;5.954;2022-08-24T04:55:52;101390.47;;;16.77;87.94
67931;BME280;54726;52.000;5.954;2022-08-24T04:56:52;101398.34;;;16.81;87.90
67931;BME280;54726;52.000;5.954;2022-08-24T04:57:54;101394.72;;;16.82;87.76
67931;BME280;54726;52.000;5.954;2022-08-24T04:58:55;101396.44;;;16.83;88.09
67931;BME280;54726;52.000;5.954;2022-08-24T04:59:56;101396.34;;;16.84;87.74
67931;BME280;54726;52.000;5.954;2022-08-24T05:00:56;101401.59;;;16.86;87.81
67931;BME280;54726;52.000;5.954;2022-08-24T05:01:56;101391.84;;;16.85;87.76
67931;BME280;54726;52.000;5.954;2022-08-24T05:02:57;101394.53;;;16.85;87.86
67931;BME280;54726;52.000;5.954;2022-08-24T05:03:58;101400.84;;;16.84;88.06
67931;BME280;54726;52.000;5.954;2022-08-24T05:04:58;101401.78;;;16.83;87.88
67931;BME280;54726;52.000;5.954;2022-08-24T05:05:59;101403.53;;;16.84;88.00
67931;BME280;54726;52.000;5.954;2022-08-24T05:06:59;101401.03;;;16.81;88.06
67931;BME280;54726;52.000;5.954;2022-08-24T05:08:00;101403.53;;;16.84;87.98
67931;BME280;54726;52.000;5.954;2022-08-24T05:09:03;101403.53;;;16.84;87.94
67931;BME280;54726;52.000;5.954;2022-08-24T05:10:06;101408.88;;;16.84;87.89
67931;BME280;54726;52.000;5.954;2022-08-24T05:11:07;101403.72;;;16.81;87.97
67931;BME280;54726;52.000;5.954;2022-08-24T05:12:07;101403.53;;;16.84;87.94
67931;BME280;54726;52.000;5.954;2022-08-24T05:13:10;101407.16;;;16.83;87.69
67931;BME280;54726;52.000;5.954;2022-08-24T05:14:10;101400.94;;;16.82;87.88
67931;BME280;54726;52.000;5.954;2022-08-24T05:15:11;101403.53;;;16.84;87.96
67931;BME280;54726;52.000;5.954;2022-08-24T05:16:13;101413.28;;;16.85;87.87
67931;BME280;54726;52.000;5.954;2022-08-24T05:17:14;101407.06;;;16.84;87.94
67931;BME280;54726;52.000;5.954;2022-08-24T05:18:15;101406.88;;;16.87;87.85
67931;BME280;54726;52.000;5.954;2022-08-24T05:19:16;101406.81;;;16.89;87.78
67931;BME280;54726;52.000;5.954;2022-08-24T05:20:16;101407.66;;;16.89;87.73
67931;BME280;54726;52.000;5.954;2022-08-24T05:21:19;101410.16;;;16.92;87.61